sensor_id;sensor_type;location;lat;lon;timestamp;temperature;humidity
47310;DHT22;33046;52.270;6.832;2022-12-18T00:01:29;-1.30;98.50
47310;DHT22;33046;52.270;6.832;2022-12-18T00:03:36;-1.30;98.50
47310;DHT22;33046;52.270;6.832;2022-12-18T00:05:48;-1.30;98.50
47310;DHT22;33046;52.270;6.832;2022-12-18T00:07:55;-1.30;98.50
47310;DHT22;33046;52.270;6.832;2022-12-18T00:10:02;-1.40;98.50
47310;DHT22;33046;52.270;6.832;2022-12-18T00:12:09;-1.40;98.40
47310;DHT22;33046;52.270;6.832;2022-12-18T00:14:16;-1.40;98.40
47310;DHT22;33046;52.270;6.832;2022-12-18T00:16:25;-1.40;98.50
47310;DHT22;33046;52.270;6.832;2022-12-18T00:18:32;-1.40;98.50
47310;DHT22;33046;52.270;6.832;2022-12-18T00:20:39;-1.40;98.20
47310;DHT22;33046;52.270;6.832;2022-12-18T00:22:48;-1.50;98.10
47310;DHT22;33046;52.270;6.832;2022-12-18T00:24:54;-1.50;98.20
47310;DHT22;33046;52.270;6.832;2022-12-18T00:27:01;-1.50;98.30
47310;DHT22;33046;52.270;6.832;2022-12-18T00:29:11;-1.50;98.00
47310;DHT22;33046;52.270;6.832;2022-12-18T00:31:20;-1.50;98.10
47310;DHT22;33046;52.270;6.832;2022-12-18T00:33:27;-1.60;97.70
47310;DHT22;33046;52.270;6.832;2022-12-18T00:35:34;-1.60;97.70
47310;DHT22;33046;52.270;6.832;2022-12-18T00:37:41;-1.60;97.90
47310;DHT22;33046;52.270;6.832;2022-12-18T00:39:49;-1.60;97.90
47310;DHT22;33046;52.270;6.832;2022-12-18T00:41:57;-1.60;97.50
47310;DHT22;33046;52.270;6.832;2022-12-18T00:44:05;-1.60;97.90
47310;DHT22;33046;52.270;6.832;2022-12-18T00:46:12;-1.70;98.00
47310;DHT22;33046;52.270;6.832;2022-12-18T00:48:19;-1.70;97.70
47310;DHT22;33046;52.270;6.832;2022-12-18T00:50:26;-1.70;97.50
47310;DHT22;33046;52.270;6.832;2022-12-18T00:52:33;-1.80;97.30
47310;DHT22;33046;52.270;6.832;2022-12-18T00:54:39;-1.80;97.30
47310;DHT22;33046;52.270;6.832;2022-12-18T00:56:48;-1.80;97.20
47310;DHT22;33046;52.270;6.832;2022-12-18T00:58:55;-1.80;97.30
47310;DHT22;33046;52.270;6.832;2022-12-18T01:01:03;-1.90;97.30
47310;DHT22;33046;52.270;6.832;2022-12-18T01:03:13;-1.90;97.50
47310;DHT22;33046;52.270;6.832;2022-12-18T01:05:23;-2.00;97.20
47310;DHT22;33046;52.270;6.832;2022-12-18T01:07:30;-1.90;97.30
47310;DHT22;33046;52.270;6.832;2022-12-18T01:09:37;-1.90;97.40
47310;DHT22;33046;52.270;6.832;2022-12-18T01:11:44;-2.00;97.50
47310;DHT22;33046;52.270;6.832;2022-12-18T01:13:53;-2.00;97.30
47310;DHT22;33046;52.270;6.832;2022-12-18T01:16:01;-2.00;97.10
47310;DHT22;33046;52.270;6.832;2022-12-18T01:18:08;-2.00;97.10
47310;DHT22;33046;52.270;6.832;2022-12-18T01:20:15;-2.00;96.80
47310;DHT22;33046;52.270;6.832;2022-12-18T01:22:21;-2.10;97.00
47310;DHT22;33046;52.270;6.832;2022-12-18T01:24:28;-2.10;97.00
47310;DHT22;33046;52.270;6.832;2022-12-18T01:26:36;-2.10;96.90
47310;DHT22;33046;52.270;6.832;2022-12-18T01:28:43;-2.10;97.10
47310;DHT22;33046;52.270;6.832;2022-12-18T01:30:51;-2.10;97.10
47310;DHT22;33046;52.270;6.832;2022-12-18T01:33:00;-2.10;97.40
47310;DHT22;33046;52.270;6.832;2022-12-18T01:35:07;-2.20;97.10
47310;DHT22;33046;52.270;6.832;2022-12-18T01:37:14;-2.20;97.10
47310;DHT22;33046;52.270;6.832;2022-12-18T01:39:21;-2.20;96.80
47310;DHT22;33046;52.270;6.832;2022-12-18T01:41:29;-2.20;96.40
47310;DHT22;33046;52.270;6.832;2022-12-18T01:43:44;-2.20;97.00
47310;DHT22;33046;52.270;6.832;2022-12-18T01:45:52;-2.30;96.90
47310;DHT22;33046;52.270;6.832;2022-12-18T01:48:02;-2.30;97.10
47310;DHT22;33046;52.270;6.832;2022-12-18T01:50:13;-2.30;97.30
47310;DHT22;33046;52.270;6.832;2022-12-18T01:52:21;-2.20;97.20
47310;DHT22;33046;52.270;6.832;2022-12-18T01:54:28;-2.30;97.00
47310;DHT22;33046;52.270;6.832;2022-12-18T01:56:36;-2.30;97.50
47310;DHT22;33046;52.270;6.832;2022-12-18T01:58:50;-2.30;97.70
47310;DHT22;33046;52.270;6.832;2022-12-18T02:00:59;-2.30;97.20
47310;DHT22;33046;52.270;6.832;2022-12-18T02:03:06;-2.30;96.80
47310;DHT22;33046;52.270;6.832;2022-12-18T02:05:16;-2.30;96.80
47310;DHT22;33046;52.270;6.832;2022-12-18T02:07:32;-2.40;97.10
47310;DHT22;33046;52.270;6.832;2022-12-18T02:09:46;-2.40;97.30
47310;DHT22;33046;52.270;6.832;2022-12-18T02:12:00;-2.40;97.30
47310;DHT22;33046;52.270;6.832;2022-12-18T02:14:18;-2.40;97.40
47310;DHT22;33046;52.270;6.832;2022-12-18T02:16:36;-2.40;97.40
47310;DHT22;33046;52.270;6.832;2022-12-18T02:18:48;-2.40;97.60
47310;DHT22;33046;52.270;6.832;2022-12-18T02:21:02;-2.40;97.60
47310;DHT22;33046;52.270;6.832;2022-12-18T02:23:24;-2.40;97.20
47310;DHT22;33046;52.270;6.832;2022-12-18T02:26:04;-2.40;97.40
47310;DHT22;33046;52.270;6.832;2022-12-18T02:28:15;-2.40;97.60
47310;DHT22;33046;52.270;6.832;2022-12-18T02:30:24;-2.50;96.60
47310;DHT22;33046;52.270;6.832;2022-12-18T02:32:33;-2.50;96.60
47310;DHT22;33046;52.270;6.832;2022-12-18T02:34:41;-2.50;96.70
47310;DHT22;33046;52.270;6.832;2022-12-18T02:36:53;-2.50;96.60
47310;DHT22;33046;52.270;6.832;2022-12-18T02:39:03;-2.50;96.60
47310;DHT22;33046;52.270;6.832;2022-12-18T02:41:13;-2.60;96.60
47310;DHT22;33046;52.270;6.832;2022-12-18T02:43:21;-2.60;97.00
47310;DHT22;33046;52.270;6.832;2022-12-18T02:45:28;-2.60;97.20
47310;DHT22;33046;52.270;6.832;2022-12-18T02:47:37;-2.60;97.10
47310;DHT22;33046;52.270;6.832;2022-12-18T02:49:54;-2.60;96.90
47310;DHT22;33046;52.270;6.832;2022-12-18T02:52:07;-2.60;97.00
47310;DHT22;33046;52.270;6.832;2022-12-18T02:54:24;-2.60;97.10
47310;DHT22;33046;52.270;6.832;2022-12-18T02:56:38;-2.60;97.00
47310;DHT22;33046;52.270;6.832;2022-12-18T02:58:51;-2.60;97.00
47310;DHT22;33046;52.270;6.832;2022-12-18T03:01:21;-2.60;97.00
47310;DHT22;33046;52.270;6.832;2022-12-18T03:03:35;-2.60;96.90
47310;DHT22;33046;52.270;6.832;2022-12-18T03:05:48;-2.60;97.00
47310;DHT22;33046;52.270;6.832;2022-12-18T03:07:57;-2.60;97.10
47310;DHT22;33046;52.270;6.832;2022-12-18T03:10:13;-2.70;97.20
47310;DHT22;33046;52.270;6.832;2022-12-18T03:12:27;-2.60;97.50
47310;DHT22;33046;52.270;6.832;2022-12-18T03:14:38;-2.60;97.30
47310;DHT22;33046;52.270;6.832;2022-12-18T03:16:50;-2.60;97.30
47310;DHT22;33046;52.270;6.832;2022-12-18T03:19:01;-2.60;97.50
47310;DHT22;33046;52.270;6.832;2022-12-18T03:21:12;-2.60;97.30
47310;DHT22;33046;52.270;6.832;2022-12-18T03:23:23;-2.60;97.00
47310;DHT22;33046;52.270;6.832;2022-12-18T03:25:33;-2.70;96.80
47310;DHT22;33046;52.270;6.832;2022-12-18T03:27:49;-2.70;96.50
47310;DHT22;33046;52.270;6.832;2022-12-18T03:30:02;-2.80;96.40
47310;DHT22;33046;52.270;6.832;2022-12-18T03:32:12;-2.80;96.60
47310;DHT22;33046;52.270;6.832;2022-12-18T03:34:24;-2.80;96.80
47310;DHT22;33046;52.270;6.832;2022-12-18T03:36:33;-2.80;96.70
47310;DHT22;33046;52.270;6.832;2022-12-18T03:38:41;-2.80;96.70
47310;DHT22;33046;52.270;6.832;2022-12-18T03:40:56;-2.80;96.80
47310;DHT22;33046;52.270;6.832;2022-12-18T03:43:10;-2.80;97.00
47310;DHT22;33046;52.270;6.832;2022-12-18T03:45:25;-2.80;97.00
47310;DHT22;33046;52.270;6.832;2022-12-18T03:47:37;-2.80;97.10
47310;DHT22;33046;52.270;6.832;2022-12-18T03:49:53;-2.80;97.00
47310;DHT22;33046;52.270;6.832;2022-12-18T03:52:05;-2.80;96.90
47310;DHT22;33046;52.270;6.832;2022-12-18T03:54:13;-2.80;96.70
47310;DHT22;33046;52.270;6.832;2022-12-18T03:56:32;-2.80;97.00
47310;DHT22;33046;52.270;6.832;2022-12-18T03:58:42;-2.80;97.00
47310;DHT22;33046;52.270;6.832;2022-12-18T04:00:57;-2.80;97.40
47310;DHT22;33046;52.270;6.832;2022-12-18T04:03:06;-2.90;97.30
47310;DHT22;33046;52.270;6.832;2022-12-18T04:05:20;-2.80;97.30
47310;DHT22;33046;52.270;6.832;2022-12-18T04:07:28;-2.80;97.30
47310;DHT22;33046;52.270;6.832;2022-12-18T04:09:39;-2.80;97.30
47310;DHT22;33046;52.270;6.832;2022-12-18T04:11:46;-2.80;97.30
47310;DHT22;33046;52.270;6.832;2022-12-18T04:13:57;-2.80;97.10
47310;DHT22;33046;52.270;6.832;2022-12-18T04:16:05;-2.90;97.10
47310;DHT22;33046;52.270;6.832;2022-12-18T04:18:12;-2.90;97.00
47310;DHT22;33046;52.270;6.832;2022-12-18T04:20:22;-2.90;96.90
47310;DHT22;33046;52.270;6.832;2022-12-18T04:22:29;-2.90;97.00
47310;DHT22;33046;52.270;6.832;2022-12-18T04:24:38;-2.90;96.90
47310;DHT22;33046;52.270;6.832;2022-12-18T04:26:55;-2.90;97.00
47310;DHT22;33046;52.270;6.832;2022-12-18T04:29:07;-2.90;97.00
47310;DHT22;33046;52.270;6.832;2022-12-18T04:31:14;-2.90;97.10
47310;DHT22;33046;52.270;6.832;2022-12-18T04:33:21;-2.90;97.10
47310;DHT22;33046;52.270;6.832;2022-12-18T04:35:28;-3.00;97.30
47310;DHT22;33046;52.270;6.832;2022-12-18T04:37:35;-3.00;97.20
47310;DHT22;33046;52.270;6.832;2022-12-18T04:39:42;-3.00;97.40
47310;DHT22;33046;52.270;6.832;2022-12-18T04:41:56;-3.00;97.30
47310;DHT22;33046;52.270;6.832;2022-12-18T04:44:07;-2.90;97.20
47310;DHT22;33046;52.270;6.832;2022-12-18T04:46:14;-3.00;97.20
47310;DHT22;33046;52.270;6.832;2022-12-18T04:48:21;-3.00;96.90
47310;DHT22;33046;52.270;6.832;2022-12-18T04:50:28;-3.00;96.70
47310;DHT22;33046;52.270;6.832;2022-12-18T04:52:35;-3.00;96.90
47310;DHT22;33046;52.270;6.832;2022-12-18T04:54:42;-3.00;96.80
47310;DHT22;33046;52.270;6.832;2022-12-18T04:56:49;-3.00;96.80
47310;DHT22;33046;52.270;6.832;2022-12-18T04:58:55;-3.10;96.80
47310;DHT22;33046;52.270;6.832;2022-12-18T05:01:03;-3.10;96.90
47310;DHT22;33046;52.270;6.832;2022-12-18T05:03:10;-3.10;97.00
47310;DHT22;33046;52.270;6.832;2022-12-18T05:05:17;-3.10;96.90
47310;DHT22;33046;52.270;6.832;2022-12-18T05:07:24;-3.10;96.80
47310;DHT22;33046;52.270;6.832;2022-12-18T05:09:31;-3.10;96.90
47310;DHT22;33046;52.270;6.832;2022-12-18T05:11:38;-3.10;96.90
47310;DHT22;33046;52.270;6.832;2022-12-18T05:13:45;-3.10;96.90
47310;DHT22;33046;52.270;6.832;2022-12-18T05:15:52;-3.10;96.90
47310;DHT22;33046;52.270;6.832;2022-12-18T05:18:01;-3.10;97.00
47310;DHT22;33046;52.270;6.832;2022-12-18T05:20:09;-3.10;97.20
47310;DHT22;33046;52.270;6.832;2022-12-18T05:22:16;-3.10;97.00
47310;DHT22;33046;52.270;6.832;2022-12-18T05:24:23;-3.10;97.20
47310;DHT22;33046;52.270;6.832;2022-12-18T05:26:29;-3.10;97.20
47310;DHT22;33046;52.270;6.832;2022-12-18T05:28:36;-3.10;97.40
47310;DHT22;33046;52.270;6.832;2022-12-18T05:30:47;-3.10;97.00
47310;DHT22;33046;52.270;6.832;2022-12-18T05:32:54;-3.10;97.00
47310;DHT22;33046;52.270;6.832;2022-12-18T05:35:03;-3.20;97.00
47310;DHT22;33046;52.270;6.832;2022-12-18T05:37:10;-3.20;97.00
47310;DHT22;33046;52.270;6.832;2022-12-18T05:39:16;-3.10;97.30
47310;DHT22;33046;52.270;6.832;2022-12-18T05:41:23;-3.20;97.10
47310;DHT22;33046;52.270;6.832;2022-12-18T05:43:31;-3.20;97.00
47310;DHT22;33046;52.270;6.832;2022-12-18T05:45:38;-3.20;97.10
47310;DHT22;33046;52.270;6.832;2022-12-18T05:47:45;-3.20;97.10
47310;DHT22;33046;52.270;6.832;2022-12-18T05:49:52;-3.20;97.10
47310;DHT22;33046;52.270;6.832;2022-12-18T05:52:00;-3.20;97.30
47310;DHT22;33046;52.270;6.832;2022-12-18T05:54:07;-3.10;97.20
47310;DHT22;33046;52.270;6.832;2022-12-18T05:56:17;-3.10;97.50
47310;DHT22;33046;52.270;6.832;2022-12-18T05:58:24;-3.10;97.70
47310;DHT22;33046;52.270;6.832;2022-12-18T06:00:31;-3.10;97.50
47310;DHT22;33046;52.270;6.832;2022-12-18T06:02:38;-3.10;97.40
47310;DHT22;33046;52.270;6.832;2022-12-18T06:04:45;-3.10;97.80
47310;DHT22;33046;52.270;6.832;2022-12-18T06:06:52;-3.10;97.60
47310;DHT22;33046;52.270;6.832;2022-12-18T06:09:00;-3.20;97.70
47310;DHT22;33046;52.270;6.832;2022-12-18T06:11:07;-3.10;97.60
47310;DHT22;33046;52.270;6.832;2022-12-18T06:13:13;-3.10;97.70
47310;DHT22;33046;52.270;6.832;2022-12-18T06:15:20;-3.10;97.70
47310;DHT22;33046;52.270;6.832;2022-12-18T06:17:27;-3.10;97.70
47310;DHT22;33046;52.270;6.832;2022-12-18T06:19:34;-3.10;97.60
47310;DHT22;33046;52.270;6.832;2022-12-18T06:21:41;-3.10;97.60
47310;DHT22;33046;52.270;6.832;2022-12-18T06:23:48;-3.10;97.60
47310;DHT22;33046;52.270;6.832;2022-12-18T06:25:56;-3.10;97.70
47310;DHT22;33046;52.270;6.832;2022-12-18T06:28:03;-3.10;97.50
47310;DHT22;33046;52.270;6.832;2022-12-18T06:30:11;-3.10;97.30
47310;DHT22;33046;52.270;6.832;2022-12-18T06:32:18;-3.10;97.50
47310;DHT22;33046;52.270;6.832;2022-12-18T06:34:25;-3.20;97.20
47310;DHT22;33046;52.270;6.832;2022-12-18T06:36:32;-3.20;97.20
47310;DHT22;33046;52.270;6.832;2022-12-18T06:38:40;-3.20;97.30
47310;DHT22;33046;52.270;6.832;2022-12-18T06:40:47;-3.20;97.50
47310;DHT22;33046;52.270;6.832;2022-12-18T06:42:55;-3.20;97.00
47310;DHT22;33046;52.270;6.832;2022-12-18T06:45:02;-3.20;97.10
47310;DHT22;33046;52.270;6.832;2022-12-18T06:47:10;-3.20;97.30
47310;DHT22;33046;52.270;6.832;2022-12-18T06:49:17;-3.30;97.10
47310;DHT22;33046;52.270;6.832;2022-12-18T06:51:24;-3.20;97.20
47310;DHT22;33046;52.270;6.832;2022-12-18T06:53:32;-3.20;97.10
47310;DHT22;33046;52.270;6.832;2022-12-18T06:55:39;-3.30;97.10
47310;DHT22;33046;52.270;6.832;2022-12-18T06:57:45;-3.30;96.90
47310;DHT22;33046;52.270;6.832;2022-12-18T06:59:54;-3.30;97.00
47310;DHT22;33046;52.270;6.832;2022-12-18T07:02:00;-3.30;97.10
47310;DHT22;33046;52.270;6.832;2022-12-18T07:04:07;-3.30;97.10
47310;DHT22;33046;52.270;6.832;2022-12-18T07:06:16;-3.40;97.00
47310;DHT22;33046;52.270;6.832;2022-12-18T07:08:23;-3.30;97.40
47310;DHT22;33046;52.270;6.832;2022-12-18T07:10:30;-3.30;97.30
47310;DHT22;33046;52.270;6.832;2022-12-18T07:12:37;-3.30;97.90
47310;DHT22;33046;52.270;6.832;2022-12-18T07:14:44;-3.30;97.80
47310;DHT22;33046;52.270;6.832;2022-12-18T07:16:52;-3.30;97.70
47310;DHT22;33046;52.270;6.832;2022-12-18T07:18:59;-3.30;97.80
47310;DHT22;33046;52.270;6.832;2022-12-18T07:21:06;-3.30;97.80
47310;DHT22;33046;52.270;6.832;2022-12-18T07:23:13;-3.30;98.00
47310;DHT22;33046;52.270;6.832;2022-12-18T07:25:20;-3.30;98.20
47310;DHT22;33046;52.270;6.832;2022-12-18T07:27:27;-3.30;98.30
47310;DHT22;33046;52.270;6.832;2022-12-18T07:29:33;-3.30;98.30
47310;DHT22;33046;52.270;6.832;2022-12-18T07:31:40;-3.20;97.90
47310;DHT22;33046;52.270;6.832;2022-12-18T07:33:49;-3.20;98.10
47310;DHT22;33046;52.270;6.832;2022-12-18T07:35:58;-3.20;97.80
47310;DHT22;33046;52.270;6.832;2022-12-18T07:38:05;-3.20;98.00
47310;DHT22;33046;52.270;6.832;2022-12-18T07:40:12;-3.30;98.00
47310;DHT22;33046;52.270;6.832;2022-12-18T07:42:19;-3.20;97.90
47310;DHT22;33046;52.270;6.832;2022-12-18T07:44:25;-3.20;98.10
47310;DHT22;33046;52.270;6.832;2022-12-18T07:46:32;-3.20;98.10
47310;DHT22;33046;52.270;6.832;2022-12-18T07:48:39;-3.20;98.10
47310;DHT22;33046;52.270;6.832;2022-12-18T07:50:47;-3.20;98.20
47310;DHT22;33046;52.270;6.832;2022-12-18T07:52:54;-3.20;98.10
47310;DHT22;33046;52.270;6.832;2022-12-18T07:55:01;-3.20;98.40
47310;DHT22;33046;52.270;6.832;2022-12-18T07:57:08;-3.20;98.40
47310;DHT22;33046;52.270;6.832;2022-12-18T07:59:21;-3.20;98.50
47310;DHT22;33046;52.270;6.832;2022-12-18T08:01:28;-3.20;98.30
47310;DHT22;33046;52.270;6.832;2022-12-18T08:03:35;-3.20;98.30
47310;DHT22;33046;52.270;6.832;2022-12-18T08:05:42;-3.20;98.40
47310;DHT22;33046;52.270;6.832;2022-12-18T08:07:50;-3.10;98.60
47310;DHT22;33046;52.270;6.832;2022-12-18T08:09:57;-3.10;98.70
47310;DHT22;33046;52.270;6.832;2022-12-18T08:12:05;-3.10;98.50
47310;DHT22;33046;52.270;6.832;2022-12-18T08:14:11;-3.10;98.70
47310;DHT22;33046;52.270;6.832;2022-12-18T08:16:19;-3.10;98.70
47310;DHT22;33046;52.270;6.832;2022-12-18T08:18:26;-3.00;98.70
47310;DHT22;33046;52.270;6.832;2022-12-18T08:20:33;-3.00;98.60
47310;DHT22;33046;52.270;6.832;2022-12-18T08:22:40;-3.00;98.80
47310;DHT22;33046;52.270;6.832;2022-12-18T08:24:49;-3.00;98.70
47310;DHT22;33046;52.270;6.832;2022-12-18T08:26:55;-3.00;98.90
47310;DHT22;33046;52.270;6.832;2022-12-18T08:29:19;-2.90;98.90
47310;DHT22;33046;52.270;6.832;2022-12-18T08:31:28;-2.90;99.00
47310;DHT22;33046;52.270;6.832;2022-12-18T08:33:36;-2.90;99.00
47310;DHT22;33046;52.270;6.832;2022-12-18T08:35:43;-2.90;98.90
47310;DHT22;33046;52.270;6.832;2022-12-18T08:37:51;-2.90;99.10
47310;DHT22;33046;52.270;6.832;2022-12-18T08:39:59;-2.80;99.30
47310;DHT22;33046;52.270;6.832;2022-12-18T08:42:06;-2.80;99.40
47310;DHT22;33046;52.270;6.832;2022-12-18T08:44:15;-2.80;99.40
47310;DHT22;33046;52.270;6.832;2022-12-18T08:46:24;-2.80;99.50
47310;DHT22;33046;52.270;6.832;2022-12-18T08:48:31;-2.70;99.70
47310;DHT22;33046;52.270;6.832;2022-12-18T08:50:37;-2.70;99.70
47310;DHT22;33046;52.270;6.832;2022-12-18T08:52:44;-2.60;99.80
47310;DHT22;33046;52.270;6.832;2022-12-18T08:54:51;-2.60;99.80
47310;DHT22;33046;52.270;6.832;2022-12-18T08:56:59;-2.60;99.70
47310;DHT22;33046;52.270;6.832;2022-12-18T08:59:06;-2.60;99.90
47310;DHT22;33046;52.270;6.832;2022-12-18T09:01:13;-2.60;99.90
47310;DHT22;33046;52.270;6.832;2022-12-18T09:03:20;-2.50;99.90
47310;DHT22;33046;52.270;6.832;2022-12-18T09:05:27;-2.50;99.90
47310;DHT22;33046;52.270;6.832;2022-12-18T09:07:33;-2.40;99.90
47310;DHT22;33046;52.270;6.832;2022-12-18T09:09:40;-2.40;99.90
47310;DHT22;33046;52.270;6.832;2022-12-18T09:11:47;-2.30;99.90
47310;DHT22;33046;52.270;6.832;2022-12-18T09:13:56;-2.30;99.90
47310;DHT22;33046;52.270;6.832;2022-12-18T09:16:03;-2.20;99.90
47310;DHT22;33046;52.270;6.832;2022-12-18T09:18:10;-2.20;99.90
47310;DHT22;33046;52.270;6.832;2022-12-18T09:20:17;-2.10;99.90
47310;DHT22;33046;52.270;6.832;2022-12-18T09:22:24;-2.10;99.90
47310;DHT22;33046;52.270;6.832;2022-12-18T09:24:31;-2.10;99.90
47310;DHT22;33046;52.270;6.832;2022-12-18T09:26:38;-2.00;99.90
47310;DHT22;33046;52.270;6.832;2022-12-18T09:28:45;-2.00;99.90
47310;DHT22;33046;52.270;6.832;2022-12-18T09:30:53;-1.90;99.90
47310;DHT22;33046;52.270;6.832;2022-12-18T09:33:00;-1.90;99.90
47310;DHT22;33046;52.270;6.832;2022-12-18T09:35:07;-1.90;99.90
47310;DHT22;33046;52.270;6.832;2022-12-18T09:37:14;-1.80;99.90
47310;DHT22;33046;52.270;6.832;2022-12-18T09:39:21;-1.70;99.90
47310;DHT22;33046;52.270;6.832;2022-12-18T09:41:40;-1.70;99.90
47310;DHT22;33046;52.270;6.832;2022-12-18T09:43:50;-1.70;99.90
47310;DHT22;33046;52.270;6.832;2022-12-18T09:46:02;-1.60;99.90
47310;DHT22;33046;52.270;6.832;2022-12-18T09:48:11;-1.50;99.90
47310;DHT22;33046;52.270;6.832;2022-12-18T09:50:24;-1.50;99.90
47310;DHT22;33046;52.270;6.832;2022-12-18T09:52:35;-1.40;99.90
47310;DHT22;33046;52.270;6.832;2022-12-18T09:54:46;-1.30;99.90
47310;DHT22;33046;52.270;6.832;2022-12-18T09:56:53;-1.30;99.90
47310;DHT22;33046;52.270;6.832;2022-12-18T09:59:01;-1.20;99.90
47310;DHT22;33046;52.270;6.832;2022-12-18T10:01:12;-1.20;99.90
47310;DHT22;33046;52.270;6.832;2022-12-18T10:03:24;-1.20;99.90
47310;DHT22;33046;52.270;6.832;2022-12-18T10:05:37;-1.10;99.90
47310;DHT22;33046;52.270;6.832;2022-12-18T10:07:55;-1.10;99.90
47310;DHT22;33046;52.270;6.832;2022-12-18T10:10:07;-1.00;99.90
47310;DHT22;33046;52.270;6.832;2022-12-18T10:12:22;-1.00;99.90
47310;DHT22;33046;52.270;6.832;2022-12-18T10:14:36;-1.00;99.90
47310;DHT22;33046;52.270;6.832;2022-12-18T10:16:56;-0.90;99.90
47310;DHT22;33046;52.270;6.832;2022-12-18T10:19:22;-0.90;99.90
47310;DHT22;33046;52.270;6.832;2022-12-18T10:21:33;-0.90;99.90
47310;DHT22;33046;52.270;6.832;2022-12-18T10:23:48;-0.90;99.90
47310;DHT22;33046;52.270;6.832;2022-12-18T10:26:02;-0.80;99.90
47310;DHT22;33046;52.270;6.832;2022-12-18T10:28:12;-0.80;99.90
47310;DHT22;33046;52.270;6.832;2022-12-18T10:30:21;-0.70;99.90
47310;DHT22;33046;52.270;6.832;2022-12-18T10:32:30;-0.70;99.90
47310;DHT22;33046;52.270;6.832;2022-12-18T10:34:37;-0.60;99.90
47310;DHT22;33046;52.270;6.832;2022-12-18T10:36:44;-0.60;99.90
47310;DHT22;33046;52.270;6.832;2022-12-18T10:38:51;-0.60;99.90
47310;DHT22;33046;52.270;6.832;2022-12-18T10:40:59;-0.50;99.90
47310;DHT22;33046;52.270;6.832;2022-12-18T10:43:11;-0.50;99.90
47310;DHT22;33046;52.270;6.832;2022-12-18T10:45:18;-0.40;99.90
47310;DHT22;33046;52.270;6.832;2022-12-18T10:47:25;-0.40;99.90
47310;DHT22;33046;52.270;6.832;2022-12-18T10:49:35;-0.30;99.90
47310;DHT22;33046;52.270;6.832;2022-12-18T10:51:42;-0.30;99.80
47310;DHT22;33046;52.270;6.832;2022-12-18T10:53:56;-0.30;99.70
47310;DHT22;33046;52.270;6.832;2022-12-18T10:56:06;-0.20;99.80
47310;DHT22;33046;52.270;6.832;2022-12-18T10:58:16;-0.20;99.90
47310;DHT22;33046;52.270;6.832;2022-12-18T11:00:30;-0.20;99.90
47310;DHT22;33046;52.270;6.832;2022-12-18T11:02:38;-0.10;99.90
47310;DHT22;33046;52.270;6.832;2022-12-18T11:04:51;-0.10;99.90
47310;DHT22;33046;52.270;6.832;2022-12-18T11:06:59;-0.10;99.80
47310;DHT22;33046;52.270;6.832;2022-12-18T11:09:19;0.00;99.90
47310;DHT22;33046;52.270;6.832;2022-12-18T11:11:27;0.00;99.90
47310;DHT22;33046;52.270;6.832;2022-12-18T11:13:34;0.00;99.90
47310;DHT22;33046;52.270;6.832;2022-12-18T11:15:41;0.10;99.90
47310;DHT22;33046;52.270;6.832;2022-12-18T11:17:50;0.10;99.70
47310;DHT22;33046;52.270;6.832;2022-12-18T11:19:59;0.10;99.70
47310;DHT22;33046;52.270;6.832;2022-12-18T11:22:19;0.20;99.70
47310;DHT22;33046;52.270;6.832;2022-12-18T11:24:29;0.20;99.70
47310;DHT22;33046;52.270;6.832;2022-12-18T11:26:36;0.20;99.40
47310;DHT22;33046;52.270;6.832;2022-12-18T11:28:45;0.20;99.30
47310;DHT22;33046;52.270;6.832;2022-12-18T11:31:09;0.20;99.20
47310;DHT22;33046;52.270;6.832;2022-12-18T11:33:21;0.30;99.30
47310;DHT22;33046;52.270;6.832;2022-12-18T11:35:37;0.30;99.40
47310;DHT22;33046;52.270;6.832;2022-12-18T11:37:49;0.30;99.30
47310;DHT22;33046;52.270;6.832;2022-12-18T11:39:59;0.30;99.30
47310;DHT22;33046;52.270;6.832;2022-12-18T11:42:13;0.40;99.40
47310;DHT22;33046;52.270;6.832;2022-12-18T11:44:26;0.40;99.00
47310;DHT22;33046;52.270;6.832;2022-12-18T11:46:36;0.40;99.20
47310;DHT22;33046;52.270;6.832;2022-12-18T11:48:47;0.40;99.10
47310;DHT22;33046;52.270;6.832;2022-12-18T11:50:58;0.40;99.50
47310;DHT22;33046;52.270;6.832;2022-12-18T11:53:11;0.50;99.10
47310;DHT22;33046;52.270;6.832;2022-12-18T11:55:27;0.50;99.10
47310;DHT22;33046;52.270;6.832;2022-12-18T11:57:39;0.50;99.40
47310;DHT22;33046;52.270;6.832;2022-12-18T11:59:55;0.50;99.20
47310;DHT22;33046;52.270;6.832;2022-12-18T12:02:16;0.50;99.30
47310;DHT22;33046;52.270;6.832;2022-12-18T12:04:48;0.50;99.00
47310;DHT22;33046;52.270;6.832;2022-12-18T12:07:04;0.50;98.80
47310;DHT22;33046;52.270;6.832;2022-12-18T12:09:19;0.60;98.80
47310;DHT22;33046;52.270;6.832;2022-12-18T12:11:38;0.60;98.80
47310;DHT22;33046;52.270;6.832;2022-12-18T12:14:08;0.60;98.70
47310;DHT22;33046;52.270;6.832;2022-12-18T12:16:23;0.60;98.70
47310;DHT22;33046;52.270;6.832;2022-12-18T12:18:38;0.60;98.70
47310;DHT22;33046;52.270;6.832;2022-12-18T12:20:53;0.60;98.70
47310;DHT22;33046;52.270;6.832;2022-12-18T12:23:14;0.70;98.70
47310;DHT22;33046;52.270;6.832;2022-12-18T12:25:30;0.70;98.80
47310;DHT22;33046;52.270;6.832;2022-12-18T12:27:43;0.70;98.60
47310;DHT22;33046;52.270;6.832;2022-12-18T12:30:00;0.70;98.70
47310;DHT22;33046;52.270;6.832;2022-12-18T12:32:19;0.70;98.80
47310;DHT22;33046;52.270;6.832;2022-12-18T12:34:36;0.70;98.80
47310;DHT22;33046;52.270;6.832;2022-12-18T12:36:57;0.80;98.90
47310;DHT22;33046;52.270;6.832;2022-12-18T12:39:13;0.80;98.70
47310;DHT22;33046;52.270;6.832;2022-12-18T12:41:24;0.80;98.60
47310;DHT22;33046;52.270;6.832;2022-12-18T12:43:37;0.80;98.50
47310;DHT22;33046;52.270;6.832;2022-12-18T12:45:50;0.80;98.80
47310;DHT22;33046;52.270;6.832;2022-12-18T12:48:02;0.80;98.60
47310;DHT22;33046;52.270;6.832;2022-12-18T12:50:14;0.80;98.30
47310;DHT22;33046;52.270;6.832;2022-12-18T12:52:28;0.80;98.30
47310;DHT22;33046;52.270;6.832;2022-12-18T12:54:38;0.90;98.30
47310;DHT22;33046;52.270;6.832;2022-12-18T12:56:51;0.90;98.40
47310;DHT22;33046;52.270;6.832;2022-12-18T12:59:11;0.90;98.40
47310;DHT22;33046;52.270;6.832;2022-12-18T13:01:27;0.90;98.20
47310;DHT22;33046;52.270;6.832;2022-12-18T13:03:43;0.90;98.40
47310;DHT22;33046;52.270;6.832;2022-12-18T13:05:56;0.90;98.20
47310;DHT22;33046;52.270;6.832;2022-12-18T13:08:06;0.90;98.20
47310;DHT22;33046;52.270;6.832;2022-12-18T13:10:25;0.90;98.50
47310;DHT22;33046;52.270;6.832;2022-12-18T13:12:32;0.90;98.80
47310;DHT22;33046;52.270;6.832;2022-12-18T13:14:40;0.90;98.90
47310;DHT22;33046;52.270;6.832;2022-12-18T13:16:48;0.90;98.60
47310;DHT22;33046;52.270;6.832;2022-12-18T13:18:55;1.00;98.80
47310;DHT22;33046;52.270;6.832;2022-12-18T13:21:17;1.00;98.80
47310;DHT22;33046;52.270;6.832;2022-12-18T13:23:33;1.00;98.70
47310;DHT22;33046;52.270;6.832;2022-12-18T13:25:44;0.90;98.70
47310;DHT22;33046;52.270;6.832;2022-12-18T13:28:01;1.00;98.70
47310;DHT22;33046;52.270;6.832;2022-12-18T13:32:44;1.00;98.80
47310;DHT22;33046;52.270;6.832;2022-12-18T13:37:44;1.00;98.60
47310;DHT22;33046;52.270;6.832;2022-12-18T13:39:57;1.00;98.70
47310;DHT22;33046;52.270;6.832;2022-12-18T13:42:39;1.00;98.90
47310;DHT22;33046;52.270;6.832;2022-12-18T13:44:47;1.00;99.00
47310;DHT22;33046;52.270;6.832;2022-12-18T13:46:54;1.00;99.00
47310;DHT22;33046;52.270;6.832;2022-12-18T13:49:02;1.00;99.00